Time;durP1;ratioP1;P1;durP2;ratioP2;P2;SDS_P1;SDS_P2;PMS_P1;PMS_P2;Temp;Humidity;BMP_temperature;BMP_pressure;BME280_temperature;BME280_humidity;BME280_pressure;Samples;Min_cycle;Max_cycle;Signal;HPM_P1;HPM_P2
2021/03/05 00:01:16;;;;;;;15.27;6.93;;;3.50;99.90;;;;;;4991729;28;20173;-66
2021/03/05 00:03:42;;;;;;;22.27;7.50;;;3.50;99.90;;;;;;4974364;28;20189;-65
2021/03/05 00:06:08;;;;;;;27.07;7.03;;;3.50;99.90;;;;;;4972479;28;20528;-65
2021/03/05 00:08:33;;;;;;;19.97;7.07;;;3.50;99.90;;;;;;4987846;28;20196;-64
2021/03/05 00:10:59;;;;;;;16.77;6.73;;;3.50;99.90;;;;;;4991384;28;20183;-65
2021/03/05 00:13:25;;;;;;;18.00;7.60;;;3.50;99.90;;;;;;4977936;28;20281;-64
2021/03/05 00:15:51;;;;;;;19.67;7.43;;;3.50;99.90;;;;;;4984163;28;20181;-65
2021/03/05 00:18:18;;;;;;;18.37;7.13;;;3.50;99.90;;;;;;4978244;28;20207;-65
2021/03/05 00:20:48;;;;;;;17.87;6.73;;;3.60;99.90;;;;;;4985872;28;20188;-64
2021/03/05 00:23:14;;;;;;;14.23;6.37;;;3.60;99.90;;;;;;4976346;28;20244;-65
2021/03/05 00:25:40;;;;;;;14.27;7.20;;;3.50;99.90;;;;;;4983885;28;20216;-65
2021/03/05 00:28:06;;;;;;;18.13;7.00;;;3.50;99.90;;;;;;4995465;28;20272;-65
2021/03/05 00:30:36;;;;;;;15.40;6.53;;;3.50;99.90;;;;;;4988029;28;20575;-65
2021/03/05 00:33:03;;;;;;;9.43;5.60;;;3.60;99.90;;;;;;4975791;28;20184;-64
2021/03/05 00:35:29;;;;;;;16.23;6.73;;;3.60;99.90;;;;;;4981393;28;20188;-66
2021/03/05 00:37:54;;;;;;;18.50;6.60;;;3.60;99.90;;;;;;4995348;28;20172;-64
2021/03/05 00:40:21;;;;;;;12.43;5.67;;;3.60;99.90;;;;;;4990945;28;20229;-64
2021/03/05 00:42:48;;;;;;;14.10;6.53;;;3.50;99.90;;;;;;4976412;28;20174;-65
2021/03/05 00:45:16;;;;;;;15.20;5.77;;;3.50;99.90;;;;;;4995345;28;20543;-66
2021/03/05 00:47:42;;;;;;;16.13;6.57;;;3.50;99.90;;;;;;4994957;28;20181;-66
2021/03/05 00:50:09;;;;;;;12.90;6.60;;;3.50;99.90;;;;;;4994057;28;20276;-66
2021/03/05 00:52:36;;;;;;;11.20;5.50;;;3.50;99.90;;;;;;4995006;28;20177;-66
2021/03/05 00:55:02;;;;;;;22.30;5.70;;;3.40;99.90;;;;;;4976993;28;20196;-65
2021/03/05 00:57:28;;;;;;;9.30;5.10;;;3.30;99.90;;;;;;4981349;28;20181;-66
2021/03/05 00:59:53;;;;;;;16.50;6.07;;;3.30;99.90;;;;;;4994493;28;20235;-66
2021/03/05 01:02:19;;;;;;;19.03;5.47;;;3.30;99.90;;;;;;4990288;28;20228;-65
2021/03/05 01:04:45;;;;;;;11.63;5.60;;;3.20;99.90;;;;;;4975377;28;20260;-65
2021/03/05 01:07:10;;;;;;;17.87;5.73;;;3.20;99.90;;;;;;4977607;28;20264;-64
2021/03/05 01:09:36;;;;;;;19.60;6.43;;;3.10;99.90;;;;;;4977282;28;20208;-65
2021/03/05 01:12:02;;;;;;;11.83;5.37;;;3.00;99.90;;;;;;4984791;28;20217;-66
2021/03/05 01:14:29;;;;;;;10.63;5.70;;;3.00;99.90;;;;;;4975485;28;20181;-65
2021/03/05 01:16:54;;;;;;;13.17;5.53;;;3.00;99.90;;;;;;4982791;28;20189;-65
2021/03/05 01:19:20;;;;;;;13.37;5.93;;;3.00;99.90;;;;;;4994399;28;20266;-65
2021/03/05 01:21:46;;;;;;;14.97;5.67;;;3.00;99.90;;;;;;4987838;28;20232;-65
2021/03/05 01:24:12;;;;;;;12.40;5.20;;;3.00;99.90;;;;;;4975226;28;20181;-65
2021/03/05 01:26:40;;;;;;;18.53;6.57;;;3.00;99.90;;;;;;4978874;28;20570;-64
2021/03/05 01:29:09;;;;;;;17.00;6.30;;;3.10;99.90;;;;;;4994346;28;20208;-66
2021/03/05 01:31:35;;;;;;;17.47;5.73;;;3.10;99.90;;;;;;4990092;28;20189;-64
2021/03/05 01:34:02;;;;;;;7.33;4.80;;;3.10;99.90;;;;;;4974893;28;20185;-66
2021/03/05 01:36:28;;;;;;;13.83;5.17;;;3.20;99.90;;;;;;4976740;28;20408;-64
2021/03/05 01:38:53;;;;;;;17.57;5.30;;;3.20;99.90;;;;;;4993974;28;20667;-64
2021/03/05 01:41:19;;;;;;;7.47;4.30;;;3.20;99.90;;;;;;4978806;28;20183;-64
2021/03/05 01:43:45;;;;;;;30.90;5.63;;;3.20;99.90;;;;;;4994293;28;20566;-65
2021/03/05 01:46:12;;;;;;;16.87;4.93;;;3.20;99.90;;;;;;4977537;28;20269;-63
2021/03/05 01:48:39;;;;;;;15.33;5.33;;;3.20;99.90;;;;;;4974566;28;20197;-64
2021/03/05 01:51:17;;;;;;;16.90;4.73;;;3.20;99.90;;;;;;4989649;28;20188;-65
2021/03/05 01:53:44;;;;;;;15.30;5.27;;;3.20;99.90;;;;;;4994622;28;20255;-65
2021/03/05 01:56:29;;;;;;;12.13;4.67;;;3.10;99.90;;;;;;4979465;28;20592;-65
2021/03/05 01:58:55;;;;;;;9.40;4.63;;;3.00;99.90;;;;;;4974262;28;20201;-65
2021/03/05 02:01:21;;;;;;;15.87;4.60;;;3.00;99.90;;;;;;4975203;28;20187;-65
2021/03/05 02:03:47;;;;;;;9.07;4.37;;;3.00;99.90;;;;;;4975264;28;20256;-65
2021/03/05 02:06:13;;;;;;;11.03;4.93;;;3.10;99.90;;;;;;4974504;28;20184;-66
2021/03/05 02:08:38;;;;;;;12.67;5.47;;;3.00;99.90;;;;;;4985311;28;20216;-65
2021/03/05 02:11:04;;;;;;;12.17;4.67;;;3.10;99.90;;;;;;4993413;28;20181;-65
2021/03/05 02:13:29;;;;;;;14.90;5.03;;;3.10;99.90;;;;;;4983953;28;20691;-66
2021/03/05 02:15:55;;;;;;;13.30;6.13;;;3.10;99.90;;;;;;4974140;28;20178;-65
2021/03/05 02:18:38;;;;;;;21.20;5.80;;;3.10;99.90;;;;;;4981806;28;20259;-65
2021/03/05 02:21:07;;;;;;;20.77;6.90;;;3.10;99.90;;;;;;4993203;28;20200;-64
2021/03/05 02:23:39;;;;;;;14.83;5.63;;;3.10;99.90;;;;;;4984235;28;20268;-65
2021/03/05 02:26:52;;;;;;;18.47;6.10;;;3.10;99.90;;;;;;4956538;28;20265;-64
2021/03/05 02:31:54;;;;;;;12.37;5.07;;;3.20;99.90;;;;;;5009270;28;20208;-65
2021/03/05 02:34:23;;;;;;;17.13;5.83;;;3.20;99.90;;;;;;5027336;28;20175;-66
2021/03/05 02:37:02;;;;;;;13.37;5.70;;;3.20;99.90;;;;;;5020765;28;20185;-66
2021/03/05 02:39:44;;;;;;;18.77;5.90;;;3.20;99.90;;;;;;5011873;28;20238;-65
2021/03/05 02:42:18;;;;;;;18.63;6.23;;;3.20;99.90;;;;;;4999024;28;20203;-66
2021/03/05 02:44:50;;;;;;;16.40;5.40;;;3.20;99.90;;;;;;4993237;28;20165;-66
2021/03/05 02:47:18;;;;;;;19.80;6.07;;;3.20;99.90;;;;;;5006885;28;20184;-67
2021/03/05 02:49:46;;;;;;;16.10;7.23;;;3.20;99.90;;;;;;5012071;28;20192;-65
2021/03/05 02:52:16;;;;;;;15.17;6.10;;;3.30;99.90;;;;;;4999209;28;20180;-67
2021/03/05 02:54:45;;;;;;;21.07;6.70;;;3.30;99.90;;;;;;4993186;28;20183;-67
2021/03/05 02:57:16;;;;;;;14.07;6.10;;;3.30;99.90;;;;;;4993124;28;20184;-66
2021/03/05 02:59:42;;;;;;;14.17;6.20;;;3.30;99.90;;;;;;4992294;28;20231;-64
2021/03/05 03:02:10;;;;;;;18.77;6.90;;;3.30;99.90;;;;;;5005442;28;20179;-67
2021/03/05 03:04:39;;;;;;;14.60;6.87;;;3.40;99.90;;;;;;5004165;28;20169;-67
2021/03/05 03:07:05;;;;;;;22.83;7.53;;;3.40;99.90;;;;;;4992687;28;20169;-67
2021/03/05 03:09:33;;;;;;;15.43;8.20;;;3.50;99.90;;;;;;4998918;28;20199;-66
2021/03/05 03:11:59;;;;;;;13.57;8.03;;;3.40;99.90;;;;;;5011702;28;20537;-66
2021/03/05 03:14:26;;;;;;;21.53;8.83;;;3.40;99.90;;;;;;5006720;28;20271;-66
2021/03/05 03:16:53;;;;;;;16.50;8.30;;;3.40;99.90;;;;;;4992393;28;20171;-67
2021/03/05 03:19:20;;;;;;;27.50;10.30;;;3.40;99.90;;;;;;5009941;28;20219;-67
2021/03/05 03:21:46;;;;;;;31.67;10.80;;;3.50;99.90;;;;;;5011577;28;20160;-67
2021/03/05 03:24:12;;;;;;;25.90;10.53;;;3.50;99.90;;;;;;4995232;28;20184;-67
2021/03/05 03:26:39;;;;;;;26.20;11.40;;;3.50;99.90;;;;;;4992462;28;20236;-66
2021/03/05 03:29:06;;;;;;;25.40;11.40;;;3.50;99.90;;;;;;5006994;28;20200;-67
2021/03/05 03:31:32;;;;;;;27.33;13.77;;;3.50;99.90;;;;;;5011247;28;20192;-65
2021/03/05 03:33:59;;;;;;;24.50;12.70;;;3.60;99.90;;;;;;5007227;28;20180;-66
2021/03/05 03:36:26;;;;;;;29.57;13.70;;;3.60;99.90;;;;;;5011760;28;20624;-67
2021/03/05 03:38:52;;;;;;;35.23;14.23;;;3.60;99.90;;;;;;4995043;28;20205;-66
2021/03/05 03:41:18;;;;;;;28.87;12.83;;;3.60;99.90;;;;;;4991862;28;20169;-66
2021/03/05 03:43:43;;;;;;;34.13;16.00;;;3.50;99.90;;;;;;5006528;28;20251;-67
2021/03/05 03:46:10;;;;;;;32.20;15.60;;;3.50;99.90;;;;;;5011766;28;20195;-66
2021/03/05 03:48:47;;;;;;;34.73;15.97;;;3.50;99.90;;;;;;4998542;28;20173;-67
2021/03/05 03:51:16;;;;;;;39.43;15.97;;;3.50;99.90;;;;;;4991417;28;20173;-67
2021/03/05 03:53:44;;;;;;;36.33;17.43;;;3.50;99.90;;;;;;5005323;28;20609;-66
2021/03/05 03:56:11;;;;;;;34.83;16.53;;;3.50;99.90;;;;;;5011763;28;20186;-66
2021/03/05 03:58:40;;;;;;;34.40;19.53;;;3.50;99.90;;;;;;4998955;28;20223;-67
2021/03/05 04:01:11;;;;;;;39.10;19.33;;;3.60;99.90;;;;;;5000790;28;20214;-67
2021/03/05 04:03:39;;;;;;;31.57;17.70;;;3.60;99.90;;;;;;5011482;28;20727;-66
2021/03/05 04:06:08;;;;;;;31.90;18.13;;;3.60;99.90;;;;;;4985248;28;20565;-67
2021/03/05 04:08:37;;;;;;;36.27;19.13;;;3.70;99.90;;;;;;4991822;28;20358;-67
2021/03/05 04:11:05;;;;;;;25.77;16.43;;;3.60;99.90;;;;;;4999228;28;20168;-66
2021/03/05 04:13:32;;;;;;;28.70;17.07;;;3.60;99.90;;;;;;5011832;28;20172;-66
2021/03/05 04:15:58;;;;;;;28.47;17.40;;;3.60;99.90;;;;;;5004870;28;20169;-67
2021/03/05 04:18:31;;;;;;;26.00;15.77;;;3.50;99.90;;;;;;4992068;28;20160;-67
2021/03/05 04:21:00;;;;;;;28.87;14.83;;;3.50;99.90;;;;;;4997310;28;20532;-67
2021/03/05 04:23:25;;;;;;;29.93;17.20;;;3.50;99.90;;;;;;5011787;28;20250;-67
2021/03/05 04:25:51;;;;;;;26.17;15.23;;;3.50;99.90;;;;;;5006900;28;20212;-65
2021/03/05 04:28:16;;;;;;;26.80;15.77;;;3.50;99.90;;;;;;4993105;28;20259;-67
2021/03/05 04:30:42;;;;;;;27.03;15.30;;;3.40;99.90;;;;;;5010734;28;20212;-67
2021/03/05 04:33:08;;;;;;;26.03;15.67;;;3.40;99.90;;;;;;5010419;28;20191;-67
2021/03/05 04:35:33;;;;;;;23.97;14.50;;;3.40;99.90;;;;;;4992237;28;20181;-65
2021/03/05 04:37:59;;;;;;;21.87;14.93;;;3.30;99.90;;;;;;4991818;28;20181;-67
2021/03/05 04:40:25;;;;;;;25.10;16.07;;;3.30;99.90;;;;;;5008463;28;20239;-67
2021/03/05 04:42:50;;;;;;;23.17;15.10;;;3.30;99.90;;;;;;5011263;28;20176;-67
2021/03/05 04:45:16;;;;;;;26.50;15.57;;;3.30;99.90;;;;;;4978134;28;20204;-66
2021/03/05 04:47:42;;;;;;;27.77;15.50;;;3.30;99.90;;;;;;5007752;28;20172;-66
2021/03/05 04:50:08;;;;;;;23.77;15.57;;;3.30;99.90;;;;;;4996935;28;20254;-65
2021/03/05 04:52:33;;;;;;;21.83;14.63;;;3.30;99.90;;;;;;4990832;28;20483;-65
2021/03/05 04:54:59;;;;;;;23.70;16.33;;;3.30;99.90;;;;;;4995320;28;20749;-67
2021/03/05 04:57:24;;;;;;;23.80;14.30;;;3.40;99.90;;;;;;5004840;28;20556;-67
2021/03/05 04:59:50;;;;;;;25.60;14.60;;;3.40;99.90;;;;;;5010690;28;20306;-66
2021/03/05 05:02:16;;;;;;;25.30;15.33;;;3.40;99.90;;;;;;5001129;28;20177;-65
2021/03/05 05:04:41;;;;;;;28.00;16.77;;;3.40;99.90;;;;;;4995030;28;20173;-67
2021/03/05 05:07:07;;;;;;;23.70;15.13;;;3.50;99.90;;;;;;5005113;28;20176;-67
2021/03/05 05:09:32;;;;;;;25.30;16.17;;;3.40;99.90;;;;;;5014754;28;20658;-67
2021/03/05 05:11:58;;;;;;;26.40;15.70;;;3.40;99.90;;;;;;5010800;28;20215;-66
2021/03/05 05:14:24;;;;;;;26.03;15.73;;;3.40;99.90;;;;;;5014653;28;20246;-66
2021/03/05 05:16:49;;;;;;;29.37;15.87;;;3.40;99.90;;;;;;5007772;28;20177;-65
2021/03/05 05:19:16;;;;;;;27.00;15.40;;;3.50;99.90;;;;;;4995195;28;20753;-66
2021/03/05 05:21:41;;;;;;;28.83;16.57;;;3.40;99.90;;;;;;4999490;28;20630;-63
2021/03/05 05:24:07;;;;;;;25.57;14.83;;;3.40;99.90;;;;;;5014703;28;20251;-66
2021/03/05 05:26:33;;;;;;;23.30;14.50;;;3.40;99.90;;;;;;5011111;28;20173;-67
2021/03/05 05:28:59;;;;;;;22.37;15.53;;;3.40;99.90;;;;;;4994643;28;20279;-66
2021/03/05 05:31:24;;;;;;;21.67;13.10;;;3.50;99.90;;;;;;4995533;28;20200;-67
2021/03/05 05:33:50;;;;;;;22.10;13.87;;;3.40;99.90;;;;;;5014305;28;20219;-67
2021/03/05 05:36:15;;;;;;;21.20;12.93;;;3.40;99.90;;;;;;5014271;28;20214;-66
2021/03/05 05:38:41;;;;;;;25.43;14.67;;;3.40;99.90;;;;;;4994979;28;20212;-66
2021/03/05 05:41:07;;;;;;;22.90;14.47;;;3.40;99.90;;;;;;4994173;28;20181;-65
2021/03/05 05:43:32;;;;;;;20.70;14.27;;;3.40;99.90;;;;;;5012228;28;20203;-67
2021/03/05 05:46:05;;;;;;;20.23;13.83;;;3.30;99.90;;;;;;5014142;28;20272;-66
2021/03/05 05:48:36;;;;;;;18.53;12.43;;;3.30;99.90;;;;;;4996940;28;20223;-66
2021/03/05 05:51:03;;;;;;;20.23;12.17;;;3.30;99.90;;;;;;5007853;28;20177;-65
2021/03/05 05:53:33;;;;;;;17.57;12.63;;;3.30;99.90;;;;;;5013875;28;20199;-67
2021/03/05 05:55:59;;;;;;;18.40;11.90;;;3.40;99.90;;;;;;4999943;28;20180;-67
2021/03/05 05:58:29;;;;;;;19.93;14.63;;;3.40;99.90;;;;;;4994251;28;20639;-65
2021/03/05 06:00:56;;;;;;;13.67;7.93;;;3.30;99.90;;;;;;5006277;28;20188;-67
2021/03/05 06:03:24;;;;;;;18.20;12.57;;;3.30;99.90;;;;;;5014183;28;20669;-64
2021/03/05 06:05:50;;;;;;;17.67;11.83;;;3.30;99.90;;;;;;5002478;28;20597;-67
2021/03/05 06:08:16;;;;;;;16.87;10.20;;;3.20;99.90;;;;;;4994405;28;20192;-67
2021/03/05 06:10:41;;;;;;;20.10;11.17;;;3.20;99.90;;;;;;5003362;28;20228;-66
2021/03/05 06:13:07;;;;;;;17.57;10.87;;;3.20;99.90;;;;;;5014340;28;20211;-67
2021/03/05 06:15:32;;;;;;;15.40;10.43;;;3.10;99.90;;;;;;5012621;28;20172;-65
2021/03/05 06:17:58;;;;;;;17.30;10.37;;;3.10;99.90;;;;;;5009181;28;20276;-66
2021/03/05 06:20:24;;;;;;;15.63;9.97;;;3.10;99.90;;;;;;4994090;28;20211;-67
2021/03/05 06:23:09;;;;;;;17.20;9.80;;;3.10;99.90;;;;;;4997184;28;20177;-67
2021/03/05 06:25:36;;;;;;;15.80;10.57;;;3.00;99.90;;;;;;5014279;28;20200;-67
2021/03/05 06:28:17;;;;;;;13.00;8.83;;;3.00;99.90;;;;;;5010127;28;20173;-67
2021/03/05 06:30:44;;;;;;;13.60;8.27;;;3.00;99.90;;;;;;4993038;28;20232;-66
2021/03/05 06:33:23;;;;;;;15.60;8.93;;;2.90;99.90;;;;;;4997671;28;20168;-65
2021/03/05 06:35:49;;;;;;;11.37;8.17;;;2.90;99.90;;;;;;5012961;28;20566;-65
2021/03/05 06:38:39;;;;;;;9.17;7.50;;;2.80;99.90;;;;;;5009461;28;20180;-66
2021/03/05 06:41:18;;;;;;;13.00;6.27;;;2.70;99.90;;;;;;4979740;28;20196;-66
2021/03/05 06:43:54;;;;;;;8.53;6.10;;;2.60;99.90;;;;;;5001838;28;20204;-65
2021/03/05 06:46:36;;;;;;;10.00;6.73;;;2.50;99.90;;;;;;4990834;28;20207;-66
2021/03/05 06:49:09;;;;;;;8.37;5.07;;;2.50;99.90;;;;;;4993417;28;20211;-67
2021/03/05 06:51:35;;;;;;;10.43;6.33;;;2.50;99.90;;;;;;4999706;28;20200;-66
2021/03/05 06:54:13;;;;;;;10.40;6.10;;;2.50;99.90;;;;;;4995152;28;20258;-66
2021/03/05 06:56:46;;;;;;;6.03;4.73;;;2.50;99.90;;;;;;5009665;28;20172;-67
2021/03/05 06:59:14;;;;;;;6.67;5.23;;;2.40;99.90;;;;;;4995106;28;20211;-66
2021/03/05 07:01:50;;;;;;;8.80;6.23;;;2.40;99.90;;;;;;4996313;28;20265;-66
2021/03/05 07:04:21;;;;;;;6.80;5.60;;;2.50;99.90;;;;;;4993268;28;20172;-66
2021/03/05 07:06:55;;;;;;;7.13;4.93;;;2.50;99.90;;;;;;5008766;28;20195;-67
2021/03/05 07:09:33;;;;;;;9.57;5.57;;;2.60;99.90;;;;;;5015210;28;20196;-66
2021/03/05 07:12:00;;;;;;;8.30;4.93;;;2.60;99.90;;;;;;4994835;28;20173;-67
2021/03/05 07:14:31;;;;;;;8.10;5.13;;;2.70;99.90;;;;;;4997837;28;20242;-67
2021/03/05 07:16:58;;;;;;;4.83;4.33;;;2.70;99.90;;;;;;5012196;28;20168;-67
2021/03/05 07:19:26;;;;;;;6.37;4.83;;;2.80;99.90;;;;;;5008107;28;20575;-67
2021/03/05 07:21:53;;;;;;;4.83;4.27;;;3.00;99.90;;;;;;4992213;28;20647;-67
2021/03/05 07:24:21;;;;;;;5.90;4.30;;;3.20;99.90;;;;;;4994780;28;20264;-66
2021/03/05 07:27:00;;;;;;;6.57;4.20;;;3.40;99.90;;;;;;5012775;28;20176;-67
2021/03/05 07:29:33;;;;;;;9.13;3.90;;;3.60;99.90;;;;;;5010165;28;20208;-66
2021/03/05 07:31:58;;;;;;;7.27;3.70;;;3.80;99.90;;;;;;4992981;28;20208;-66
2021/03/05 07:34:26;;;;;;;5.00;4.23;;;4.00;99.90;;;;;;4994877;28;20592;-66
2021/03/05 07:36:56;;;;;;;6.27;3.57;;;4.10;99.90;;;;;;5012552;28;20218;-65
2021/03/05 07:39:27;;;;;;;4.03;3.40;;;4.30;99.90;;;;;;4993354;28;20258;-67
2021/03/05 07:41:55;;;;;;;4.03;3.17;;;4.50;99.90;;;;;;4992305;28;20172;-66
2021/03/05 07:44:21;;;;;;;5.93;3.30;;;4.40;99.90;;;;;;5011624;28;20246;-67
2021/03/05 07:46:48;;;;;;;3.10;2.80;;;4.50;99.90;;;;;;5012256;28;20255;-66
2021/03/05 07:49:14;;;;;;;5.27;3.40;;;4.40;99.90;;;;;;4994137;28;20205;-65
2021/03/05 07:51:41;;;;;;;5.20;3.30;;;4.40;99.90;;;;;;4991949;28;20180;-67
2021/03/05 07:54:07;;;;;;;5.97;3.10;;;4.40;99.90;;;;;;5007755;28;20184;-66
2021/03/05 07:56:49;;;;;;;4.37;3.13;;;4.30;99.90;;;;;;5002664;28;20177;-66
2021/03/05 07:59:55;;;;;;;5.23;3.03;;;4.40;99.90;;;;;;4992038;28;20213;-65
2021/03/05 08:02:22;;;;;;;4.47;3.37;;;4.00;99.90;;;;;;5006789;28;20180;-67
2021/03/05 08:05:06;;;;;;;3.40;3.10;;;3.40;99.90;;;;;;5011678;28;20251;-67
2021/03/05 08:07:36;;;;;;;6.93;3.33;;;3.30;99.90;;;;;;4995771;28;20172;-66
2021/03/05 08:10:03;;;;;;;3.03;2.73;;;3.50;99.90;;;;;;4991790;28;20205;-67
2021/03/05 08:12:38;;;;;;;3.97;3.10;;;4.00;99.90;;;;;;4995360;28;20177;-66
2021/03/05 08:15:06;;;;;;;4.07;3.13;;;4.30;99.90;;;;;;4992278;28;20175;-67
2021/03/05 08:17:40;;;;;;;6.00;3.13;;;4.10;99.90;;;;;;4994994;28;20646;-67
2021/03/05 08:20:07;;;;;;;4.20;2.47;;;4.10;99.90;;;;;;5009648;28;20710;-66
2021/03/05 08:22:33;;;;;;;3.83;2.90;;;4.00;99.90;;;;;;5011504;28;20160;-67
2021/03/05 08:25:21;;;;;;;8.53;3.27;;;4.20;99.90;;;;;;5010311;28;20227;-67
2021/03/05 08:27:47;;;;;;;3.87;2.70;;;4.80;99.90;;;;;;4997390;28;20215;-67
2021/03/05 08:30:14;;;;;;;4.10;3.33;;;5.20;99.90;;;;;;5005730;28;20208;-67
2021/03/05 08:32:59;;;;;;;5.07;3.40;;;5.60;99.90;;;;;;4991628;28;20184;-66
2021/03/05 08:35:30;;;;;;;4.53;2.73;;;5.80;99.90;;;;;;5009241;28;20187;-67
2021/03/05 08:38:13;;;;;;;2.83;2.50;;;6.30;99.90;;;;;;5014063;28;20183;-66
2021/03/05 08:40:44;;;;;;;3.37;2.83;;;6.70;99.90;;;;;;5007176;28;20215;-67
2021/03/05 08:43:10;;;;;;;6.53;3.47;;;6.80;99.90;;;;;;4999792;28;20211;-67
2021/03/05 08:45:49;;;;;;;6.00;2.67;;;7.00;99.90;;;;;;5010451;28;20239;-67
2021/03/05 08:48:33;;;;;;;4.00;2.80;;;7.00;99.90;;;;;;4998385;28;20180;-67
2021/03/05 08:51:08;;;;;;;5.73;3.20;;;6.90;99.90;;;;;;5002116;28;20646;-66
2021/03/05 08:53:45;;;;;;;3.43;2.40;;;6.80;99.90;;;;;;5012497;28;20203;-67
2021/03/05 08:56:28;;;;;;;3.37;2.70;;;7.10;99.90;;;;;;4999112;28;20676;-67
2021/03/05 08:58:59;;;;;;;4.17;2.50;;;7.30;99.90;;;;;;4994681;28;20551;-67
2021/03/05 09:01:40;;;;;;;6.37;3.23;;;7.20;99.90;;;;;;5005668;28;20211;-65
2021/03/05 09:04:10;;;;;;;5.87;2.60;;;7.30;99.90;;;;;;5009011;28;20259;-67
2021/03/05 09:06:35;;;;;;;5.50;2.90;;;7.40;99.90;;;;;;5013797;28;20160;-66
2021/03/05 09:09:11;;;;;;;4.97;2.63;;;7.60;99.90;;;;;;4997896;28;20203;-66
2021/03/05 09:11:37;;;;;;;4.03;2.40;;;7.60;99.90;;;;;;5000976;28;20184;-66
2021/03/05 09:14:21;;;;;;;5.33;2.87;;;7.80;99.90;;;;;;4997382;28;20535;-67
2021/03/05 09:17:04;;;;;;;5.63;2.83;;;7.80;99.90;;;;;;4996713;28;20438;-67
2021/03/05 09:19:45;;;;;;;3.50;2.33;;;8.20;99.90;;;;;;4995176;28;20678;-67
2021/03/05 09:22:16;;;;;;;3.80;2.90;;;8.30;99.90;;;;;;4994328;28;20207;-67
2021/03/05 09:25:01;;;;;;;4.77;2.97;;;8.60;99.90;;;;;;4998944;28;20181;-67
2021/03/05 09:27:32;;;;;;;3.43;2.67;;;8.90;99.90;;;;;;4994544;28;20723;-66
2021/03/05 09:30:00;;;;;;;4.97;2.47;;;9.00;99.90;;;;;;4998039;28;20231;-66
2021/03/05 09:32:26;;;;;;;7.07;2.77;;;8.90;99.90;;;;;;5001035;28;20181;-67
2021/03/05 09:34:54;;;;;;;4.57;2.53;;;8.80;99.90;;;;;;4994131;28;20539;-66
2021/03/05 09:37:23;;;;;;;3.63;3.10;;;8.80;99.90;;;;;;4996378;28;20203;-67
2021/03/05 09:39:50;;;;;;;7.00;3.70;;;8.60;99.90;;;;;;5013384;28;20235;-66
2021/03/05 09:42:16;;;;;;;4.23;2.93;;;8.20;99.90;;;;;;5006289;28;20176;-67
2021/03/05 09:44:46;;;;;;;3.50;3.10;;;8.30;99.90;;;;;;4994384;28;20208;-65
2021/03/05 09:47:12;;;;;;;8.97;4.07;;;8.40;99.90;;;;;;5005272;28;20169;-67
2021/03/05 09:49:39;;;;;;;5.90;3.20;;;8.70;99.90;;;;;;5013722;28;20235;-66
2021/03/05 09:52:04;;;;;;;6.47;3.60;;;8.90;99.90;;;;;;5006827;28;20184;-66
2021/03/05 09:54:41;;;;;;;6.23;3.00;;;9.10;99.90;;;;;;5013507;28;20716;-67
2021/03/05 09:57:07;;;;;;;6.47;3.87;;;9.40;99.90;;;;;;5008633;28;20263;-66
2021/03/05 09:59:49;;;;;;;5.87;3.83;;;9.00;99.90;;;;;;5013292;28;20579;-67
2021/03/05 10:02:19;;;;;;;5.93;3.60;;;8.90;99.90;;;;;;4996392;28;20177;-66
2021/03/05 10:04:51;;;;;;;5.60;3.97;;;8.10;99.90;;;;;;5008538;28;20530;-66
2021/03/05 10:07:18;;;;;;;6.87;3.97;;;7.50;99.90;;;;;;5013237;28;20191;-66
2021/03/05 10:09:44;;;;;;;4.33;3.37;;;7.30;99.90;;;;;;4998262;28;20255;-65
2021/03/05 10:12:10;;;;;;;6.50;3.80;;;7.50;99.90;;;;;;5006270;28;20642;-67
2021/03/05 10:14:36;;;;;;;7.80;4.30;;;7.30;99.90;;;;;;4993456;28;20172;-67
2021/03/05 10:17:20;;;;;;;9.03;4.20;;;7.00;99.90;;;;;;5002954;28;20187;-67
2021/03/05 10:19:46;;;;;;;5.40;4.00;;;6.80;99.90;;;;;;5012487;28;20207;-67
2021/03/05 10:22:13;;;;;;;5.97;4.43;;;7.00;99.90;;;;;;5001798;28;20542;-66
2021/03/05 10:24:40;;;;;;;6.37;4.43;;;6.90;99.90;;;;;;4993322;28;20531;-66
2021/03/05 10:27:11;;;;;;;6.20;3.77;;;7.10;99.90;;;;;;4997527;28;20195;-67
2021/03/05 10:30:05;;;;;;;6.53;4.13;;;7.30;99.90;;;;;;4993343;28;20219;-66
2021/03/05 10:32:36;;;;;;;4.73;4.30;;;6.90;99.90;;;;;;5001294;28;20545;-67
2021/03/05 10:35:05;;;;;;;5.60;4.27;;;6.90;99.90;;;;;;5012023;28;20259;-66
2021/03/05 10:37:31;;;;;;;6.60;4.27;;;7.30;99.90;;;;;;4992805;28;20196;-66
2021/03/05 10:39:56;;;;;;;4.87;3.90;;;7.80;99.90;;;;;;4992466;28;20223;-67
2021/03/05 10:42:24;;;;;;;5.17;4.10;;;8.30;99.90;;;;;;5005108;28;20180;-67
2021/03/05 10:44:50;;;;;;;4.50;4.10;;;8.70;99.90;;;;;;4992783;28;20169;-67
2021/03/05 10:47:19;;;;;;;7.70;3.90;;;8.40;99.90;;;;;;5002390;28;20592;-67
2021/03/05 10:49:45;;;;;;;6.93;3.70;;;8.60;99.90;;;;;;5011387;28;20235;-66
2021/03/05 10:52:13;;;;;;;5.30;3.90;;;8.60;99.90;;;;;;5011885;28;20517;-67
2021/03/05 10:54:40;;;;;;;7.60;4.10;;;8.30;99.90;;;;;;4997704;28;20183;-67
2021/03/05 10:57:07;;;;;;;6.67;4.23;;;8.10;99.90;;;;;;4992158;28;20180;-67
2021/03/05 10:59:33;;;;;;;4.70;4.20;;;7.80;99.90;;;;;;5000539;28;20219;-67
2021/03/05 11:01:59;;;;;;;5.03;4.40;;;7.40;99.90;;;;;;4995368;28;20184;-67
2021/03/05 11:04:26;;;;;;;4.63;3.63;;;7.10;99.90;;;;;;4986378;28;20175;-67
2021/03/05 11:06:53;;;;;;;9.27;3.50;;;7.00;99.90;;;;;;5011962;28;20245;-65
2021/03/05 11:09:19;;;;;;;5.97;4.27;;;6.90;99.90;;;;;;4983455;28;20235;-67
2021/03/05 11:11:46;;;;;;;6.53;4.27;;;6.70;99.90;;;;;;5011981;28;20188;-66
2021/03/05 11:14:13;;;;;;;6.10;4.10;;;6.60;99.90;;;;;;5002073;28;20180;-66
2021/03/05 11:16:39;;;;;;;6.27;4.10;;;6.50;99.90;;;;;;5010348;28;20212;-66
2021/03/05 11:19:05;;;;;;;5.23;4.13;;;7.00;99.90;;;;;;5011946;28;20705;-66
2021/03/05 11:21:32;;;;;;;4.17;3.77;;;7.20;99.90;;;;;;5011766;28;20637;-67
2021/03/05 11:23:58;;;;;;;6.20;3.87;;;7.80;99.90;;;;;;4994577;28;20283;-67
2021/03/05 11:26:24;;;;;;;8.03;3.80;;;8.20;99.90;;;;;;5011753;28;20168;-67
2021/03/05 11:28:51;;;;;;;4.70;3.83;;;8.40;99.90;;;;;;5012417;28;20196;-66
2021/03/05 11:31:18;;;;;;;6.67;4.33;;;8.20;99.90;;;;;;5011943;28;20199;-66
2021/03/05 11:33:44;;;;;;;5.23;3.83;;;7.60;99.90;;;;;;5012061;28;20544;-66
2021/03/05 11:36:15;;;;;;;4.93;4.33;;;7.40;99.90;;;;;;5011574;28;20176;-67
2021/03/05 11:38:42;;;;;;;6.40;4.60;;;7.10;99.90;;;;;;5011461;28;20176;-66
2021/03/05 11:41:08;;;;;;;5.73;4.20;;;6.80;99.90;;;;;;5011205;28;20218;-66
2021/03/05 11:43:49;;;;;;;5.17;4.10;;;6.70;99.90;;;;;;5011701;28;20572;-67
2021/03/05 11:46:22;;;;;;;5.17;4.10;;;6.40;99.90;;;;;;5011702;28;20172;-67
2021/03/05 11:48:48;;;;;;;5.40;3.77;;;6.20;99.90;;;;;;5011749;28;20178;-65
2021/03/05 11:51:15;;;;;;;3.87;3.20;;;5.80;99.90;;;;;;5011093;28;20175;-66
2021/03/05 11:53:41;;;;;;;4.30;3.73;;;6.00;99.90;;;;;;5012094;28;20541;-64
2021/03/05 11:56:07;;;;;;;6.43;3.90;;;6.40;99.90;;;;;;5011289;28;20181;-64
2021/03/05 11:58:34;;;;;;;5.37;3.67;;;6.50;99.90;;;;;;5011541;28;20290;-64
2021/03/05 12:01:00;;;;;;;4.50;3.50;;;6.60;99.90;;;;;;4993222;28;20677;-65
2021/03/05 12:03:26;;;;;;;4.93;4.33;;;7.20;99.90;;;;;;5011581;28;20171;-65
2021/03/05 12:05:51;;;;;;;6.33;4.40;;;7.90;99.90;;;;;;5000746;28;20173;-66
2021/03/05 12:08:17;;;;;;;4.17;3.73;;;8.70;99.90;;;;;;5007079;28;20180;-64
2021/03/05 12:10:42;;;;;;;4.40;3.50;;;9.40;99.90;;;;;;5006928;28;20323;-65
2021/03/05 12:13:10;;;;;;;7.00;4.37;;;9.70;99.90;;;;;;5015538;28;20187;-64
2021/03/05 12:15:36;;;;;;;7.07;4.60;;;9.60;99.90;;;;;;5008546;28;20180;-65
2021/03/05 12:18:01;;;;;;;6.60;4.03;;;9.50;99.90;;;;;;4995132;28;20327;-65
2021/03/05 12:20:28;;;;;;;6.20;4.03;;;9.10;99.90;;;;;;4999451;28;20214;-64
2021/03/05 12:22:53;;;;;;;5.83;4.47;;;8.40;99.90;;;;;;5014172;28;20222;-65
2021/03/05 12:25:19;;;;;;;6.03;3.90;;;7.70;99.90;;;;;;5012054;28;20220;-65
2021/03/05 12:27:44;;;;;;;7.23;4.90;;;7.50;99.90;;;;;;4995763;28;20531;-67
2021/03/05 12:30:11;;;;;;;6.47;3.97;;;7.80;99.90;;;;;;4978844;28;20635;-66
2021/03/05 12:32:36;;;;;;;5.30;3.67;;;8.30;99.90;;;;;;5015013;28;20231;-66
2021/03/05 12:35:02;;;;;;;4.33;3.93;;;8.60;99.90;;;;;;5014748;28;20207;-65
2021/03/05 12:37:28;;;;;;;5.47;4.10;;;9.00;99.90;;;;;;4996643;28;20271;-65
2021/03/05 12:39:53;;;;;;;4.90;3.77;;;9.10;99.90;;;;;;5003330;28;20269;-65
2021/03/05 12:42:19;;;;;;;4.87;3.90;;;9.20;99.90;;;;;;5014667;28;20179;-65
2021/03/05 12:44:45;;;;;;;4.53;3.37;;;9.10;99.90;;;;;;5007548;28;20180;-65
2021/03/05 12:47:10;;;;;;;5.50;3.37;;;9.10;99.90;;;;;;4995005;28;20214;-65
2021/03/05 12:49:36;;;;;;;7.00;3.80;;;9.10;99.90;;;;;;5005802;28;20254;-65
2021/03/05 12:52:02;;;;;;;4.53;3.37;;;8.90;99.90;;;;;;5013612;28;20179;-65
2021/03/05 12:54:27;;;;;;;6.00;3.40;;;8.70;99.90;;;;;;5005882;28;20176;-65
2021/03/05 12:56:53;;;;;;;4.33;2.80;;;8.50;99.90;;;;;;4995084;28;20260;-65
2021/03/05 12:59:18;;;;;;;3.20;2.73;;;8.30;99.90;;;;;;5002807;28;20231;-64
2021/03/05 13:01:44;;;;;;;4.00;3.27;;;8.60;99.90;;;;;;5015982;28;20177;-64